Spotsylvania, VA

3:21 PM EDT on September 20, 2014 (GMT -0400)
Louisa County-Freeman | Change Station
CLOSE
Current Station
Airport
Location: Louisa,
Elevation: 492 ft
Nearby Weather Stations

Elev 492 ft 38.01 °N, 77.97 °W | Updated 6 minutes ago

Clear
Clear
81 °F
Feels Like 80 °F
N
7
Wind Variable Wind from ESE

Today
High -- | Low -- °F
--% Chance of Precip.
Yesterday
High -- | Low -- °F
Precip. -- in
6:56 AM 7:10 PM
Waning Crescent, 11% visible
Pressure 30.12 in
Visibility 10.0 miles
Clouds Clear
Heat Index 80 °F
Dew Point 55 °F
Humidity 42%
Rainfall 0.00 in
Snow Depth Not available.
UV 6 out of 12
Pollen 4.10 out of 12
Air Quality Not available.
Flu Activity Not available.
METAR KLKU 201915Z AUTO 11006KT 10SM CLR 27/13 A3012 RMK AO2

More Conditions Fewer Conditions

Pressure 30.12 in
Visibility 10.0 miles
Clouds Clear
Heat Index 80 °F
Dew Point 55 °F
Humidity 42%
Rainfall 0.00 in
Snow Depth Not available.
UV 6 out of 12
Pollen 4.10 out of 12
Air Quality Not available.
Flu Activity Not available.
METAR KLKU 201915Z AUTO 11006KT 10SM CLR 27/13 A3012 RMK AO2

More Conditions Fewer Conditions

10-Day Weather Forecast

Almanac

Astronomy

Sep. 20, 2014 Rise Set
Actual Time 6:56 AM EDT 7:10 PM EDT
Civil Twilight 6:30 AM EDT 7:37 PM EDT
Nautical Twilight 5:59 AM EDT 8:07 PM EDT
Astronomical Twilight 5:27 AM EDT 8:39 PM EDT
Moon 3:36 AM EDT 5:10 PM EDT
Length of Visible Light 13h 06m
Length of Day
12h 14m
Tomorrow will be 2m 27s shorter.
Waning Crescent, 11% of the Moon is Illuminated
Today
Waning Crescent
Sep 24
New
Oct 1
First Quarter
Oct 8
Full
Oct 15
Last Quarter

Today's Extremes

State Highs State Lows

Community

WunderPhotos

Upload Photos

1,754,927 photos uploaded!

WunderBlogs® & News

Nearby

Snow Depth

Station Depth Elevation
No new snow has been reported.

Earthquake Activity

City Distance Mag. Time & Date
No recent earthquake activity has been reported nearby.
Minimum magnitude displayed is 2.5.

Coastal Water Temperatures

Place Temperature
Washington, DC 73.9 °F
Lewisetta, VA 73.9 °F
Solomons Island, MD 75.9 °F

Nearby Weather Stations